Time;durP1;ratioP1;P1;durP2;ratioP2;P2;SDS_P1;SDS_P2;PMS_P1;PMS_P2;Temp;Humidity;BMP_temperature;BMP_pressure;BME280_temperature;BME280_humidity;BME280_pressure;Samples;Min_cycle;Max_cycle;Signal;HPM_P1;HPM_P2
2023/04/26 00:01:31;;;;;;;206.80;192.27;;;7.00;37.90;;;;;;4996396;28;20255;-72
2023/04/26 00:03:56;;;;;;;208.43;193.97;;;7.00;37.80;;;;;;5011939;28;20226;-70
2023/04/26 00:06:22;;;;;;;229.67;214.83;;;7.00;37.70;;;;;;5006374;28;20192;-71
2023/04/26 00:08:47;;;;;;;213.67;198.90;;;6.90;38.20;;;;;;4992375;28;20173;-71
2023/04/26 00:11:13;;;;;;;194.37;180.37;;;6.90;39.60;;;;;;4994709;28;20192;-70
2023/04/26 00:13:38;;;;;;;154.23;141.50;;;6.90;38.60;;;;;;4994867;28;20181;-70
2023/04/26 00:16:04;;;;;;;245.77;230.23;;;7.00;38.30;;;;;;4996379;28;20228;-71
2023/04/26 00:18:30;;;;;;;182.80;168.60;;;7.00;37.60;;;;;;4996307;28;20203;-71
2023/04/26 00:20:56;;;;;;;261.77;245.07;;;7.00;36.30;;;;;;4996245;28;20777;-71
2023/04/26 00:23:22;;;;;;;193.47;178.27;;;6.90;36.50;;;;;;4996038;28;20173;-70
2023/04/26 00:25:47;;;;;;;195.03;180.60;;;6.90;36.50;;;;;;4996066;28;20424;-70
2023/04/26 00:28:13;;;;;;;100.77;86.33;;;6.80;36.60;;;;;;4996339;28;20222;-70
2023/04/26 00:30:41;;;;;;;252.10;236.47;;;6.70;36.30;;;;;;4996952;28;20196;-70
2023/04/26 00:33:06;;;;;;;243.60;228.17;;;6.60;36.90;;;;;;5014797;28;20227;-70
2023/04/26 00:35:32;;;;;;;148.47;135.70;;;6.50;36.10;;;;;;5014687;28;20427;-70
2023/04/26 00:37:57;;;;;;;249.93;233.50;;;6.50;36.60;;;;;;5015612;28;20295;-71
2023/04/26 00:40:23;;;;;;;190.13;176.33;;;6.40;35.20;;;;;;5015293;28;20242;-70
2023/04/26 00:42:55;;;;;;;193.73;179.80;;;6.40;34.70;;;;;;5014952;28;20183;-70
2023/04/26 00:45:21;;;;;;;163.03;149.90;;;6.30;34.70;;;;;;5015410;28;20180;-70
2023/04/26 00:47:46;;;;;;;193.27;179.63;;;6.30;35.90;;;;;;5015331;28;20429;-71
2023/04/26 00:50:12;;;;;;;118.67;107.10;;;6.20;36.20;;;;;;5015206;28;20203;-71
2023/04/26 00:52:38;;;;;;;227.00;211.80;;;6.20;38.00;;;;;;5004781;28;20573;-71
2023/04/26 00:55:04;;;;;;;175.57;162.17;;;6.30;38.00;;;;;;5015218;28;20245;-71
2023/04/26 00:57:30;;;;;;;175.33;162.00;;;6.20;38.60;;;;;;5015182;28;20434;-71
2023/04/26 00:59:56;;;;;;;204.80;190.50;;;6.20;39.10;;;;;;5015064;28;20411;-70
2023/04/26 01:02:21;;;;;;;175.10;162.47;;;6.20;39.10;;;;;;5011149;28;20878;-71
2023/04/26 01:04:47;;;;;;;180.17;167.20;;;6.20;40.10;;;;;;4996088;28;20176;-71
2023/04/26 01:07:12;;;;;;;189.83;176.37;;;6.20;40.00;;;;;;5015037;28;20179;-71
2023/04/26 01:09:39;;;;;;;188.07;174.47;;;6.20;39.10;;;;;;5014949;28;20254;-71
2023/04/26 01:12:06;;;;;;;209.23;195.33;;;6.20;39.10;;;;;;5014402;28;20212;-71
2023/04/26 01:14:32;;;;;;;212.27;198.10;;;6.10;39.00;;;;;;5014740;28;20942;-72
2023/04/26 01:16:58;;;;;;;200.63;186.63;;;6.10;39.00;;;;;;4999408;28;20437;-71
2023/04/26 01:19:24;;;;;;;308.60;287.93;;;6.10;39.00;;;;;;4995273;28;20549;-71
2023/04/26 01:21:50;;;;;;;149.77;137.17;;;6.00;39.20;;;;;;4994670;28;20446;-71
2023/04/26 01:24:15;;;;;;;144.70;131.90;;;6.00;40.10;;;;;;4994915;28;20180;-71
2023/04/26 01:26:45;;;;;;;227.17;212.10;;;6.00;39.50;;;;;;4999233;28;20210;-72
2023/04/26 01:29:18;;;;;;;164.27;151.13;;;6.00;38.90;;;;;;4999558;28;20180;-71
2023/04/26 01:31:44;;;;;;;182.10;167.47;;;6.00;39.00;;;;;;4995094;28;20470;-71
2023/04/26 01:34:10;;;;;;;207.23;193.20;;;6.00;40.10;;;;;;4994846;28;20423;-71
2023/04/26 01:36:35;;;;;;;196.77;182.43;;;6.00;39.80;;;;;;4994686;28;20411;-71
2023/04/26 01:39:01;;;;;;;235.37;220.43;;;6.00;40.10;;;;;;5009110;28;20667;-71
2023/04/26 01:41:27;;;;;;;211.57;196.77;;;6.00;39.70;;;;;;5013889;28;20218;-70
2023/04/26 01:43:52;;;;;;;180.30;166.20;;;6.00;40.00;;;;;;5013983;28;20179;-71
2023/04/26 01:46:18;;;;;;;165.97;153.03;;;6.00;40.90;;;;;;5014148;28;20172;-71
2023/04/26 01:48:44;;;;;;;214.83;199.83;;;6.00;41.20;;;;;;5014134;28;20268;-70
2023/04/26 01:51:09;;;;;;;152.83;139.70;;;6.00;40.50;;;;;;4998107;28;20207;-70
2023/04/26 01:53:35;;;;;;;199.43;185.50;;;5.90;41.90;;;;;;5004371;28;20178;-70
2023/04/26 01:56:01;;;;;;;166.20;153.13;;;5.90;42.10;;;;;;5014100;28;20637;-71
2023/04/26 01:58:28;;;;;;;184.27;170.17;;;5.80;43.10;;;;;;5014101;28;20233;-71
2023/04/26 02:00:53;;;;;;;231.90;216.57;;;5.80;41.90;;;;;;5013820;28;20525;-70
2023/04/26 02:03:19;;;;;;;210.87;196.37;;;5.80;41.90;;;;;;4997862;28;20519;-71
2023/04/26 02:05:44;;;;;;;213.97;199.23;;;5.80;40.70;;;;;;4994240;28;20185;-70
2023/04/26 02:08:10;;;;;;;254.30;236.40;;;5.80;40.40;;;;;;4994225;28;20207;-70
2023/04/26 02:10:35;;;;;;;191.73;178.03;;;5.70;38.90;;;;;;4994052;28;20576;-70
2023/04/26 02:13:01;;;;;;;154.20;141.70;;;5.60;38.70;;;;;;4993919;28;20261;-70
2023/04/26 02:15:26;;;;;;;163.67;150.67;;;5.50;39.00;;;;;;5011962;28;20425;-71
2023/04/26 02:17:54;;;;;;;211.90;197.53;;;5.50;38.50;;;;;;5013648;28;20179;-70
2023/04/26 02:20:20;;;;;;;272.13;253.50;;;5.40;39.40;;;;;;5013509;28;20187;-71
2023/04/26 02:22:45;;;;;;;221.50;205.67;;;5.30;38.90;;;;;;5013231;28;20427;-71
2023/04/26 02:25:11;;;;;;;142.17;130.23;;;5.10;41.10;;;;;;5011486;28;20675;-73
2023/04/26 02:27:36;;;;;;;147.93;135.20;;;5.10;40.70;;;;;;4995915;28;20256;-71
2023/04/26 02:30:03;;;;;;;162.73;149.17;;;5.00;40.60;;;;;;4994401;28;20681;-71
2023/04/26 02:32:29;;;;;;;122.63;111.00;;;4.90;40.10;;;;;;4993131;28;20235;-71
2023/04/26 02:34:55;;;;;;;174.63;160.83;;;4.80;40.30;;;;;;4997046;28;20488;-71
2023/04/26 02:37:21;;;;;;;163.87;150.47;;;4.70;41.00;;;;;;5013153;28;20412;-71
2023/04/26 02:39:50;;;;;;;174.07;161.10;;;4.60;41.30;;;;;;5012996;28;20523;-70
2023/04/26 02:42:16;;;;;;;176.35;162.60;;;4.60;42.40;;;;;;5013017;28;20430;-72
2023/04/26 02:44:41;;;;;;;146.07;133.67;;;4.50;42.70;;;;;;5011364;28;20676;-71
2023/04/26 02:47:07;;;;;;;177.97;164.37;;;4.40;42.60;;;;;;4993716;28;20506;-71
2023/04/26 02:49:33;;;;;;;94.03;83.50;;;4.30;43.00;;;;;;4993347;28;20527;-71
2023/04/26 02:51:58;;;;;;;143.47;130.90;;;4.30;44.30;;;;;;4993062;28;20876;-72
2023/04/26 02:54:24;;;;;;;136.07;123.90;;;4.10;44.70;;;;;;4993287;28;20180;-72
2023/04/26 02:56:50;;;;;;;130.73;119.43;;;4.10;45.70;;;;;;4992779;28;20178;-71
2023/04/26 02:59:15;;;;;;;130.97;118.17;;;4.10;44.40;;;;;;5012973;28;20908;-71
2023/04/26 03:01:41;;;;;;;156.33;143.50;;;4.00;44.80;;;;;;5012589;28;20195;-71
2023/04/26 03:04:07;;;;;;;201.80;187.20;;;4.00;45.40;;;;;;5012836;28;20181;-71
2023/04/26 03:06:32;;;;;;;156.90;144.20;;;3.90;45.30;;;;;;5012633;28;20192;-71
2023/04/26 03:08:58;;;;;;;130.47;118.13;;;3.90;47.30;;;;;;5011064;28;20184;-70
2023/04/26 03:11:23;;;;;;;165.17;151.33;;;4.00;49.10;;;;;;4992863;28;20252;-71
2023/04/26 03:13:49;;;;;;;180.90;167.20;;;4.00;48.50;;;;;;4992954;28;20256;-72
2023/04/26 03:16:15;;;;;;;137.50;125.03;;;4.00;49.30;;;;;;4993019;28;20186;-71
2023/04/26 03:18:40;;;;;;;123.20;111.63;;;4.00;49.60;;;;;;4992968;28;20178;-74
2023/04/26 03:21:06;;;;;;;144.40;132.13;;;4.10;48.20;;;;;;5011235;28;20520;-71
2023/04/26 03:23:31;;;;;;;223.70;208.33;;;4.00;47.90;;;;;;5012369;28;20183;-71
2023/04/26 03:25:57;;;;;;;163.07;149.47;;;4.00;47.40;;;;;;5012348;28;20211;-71
2023/04/26 03:28:23;;;;;;;202.00;186.77;;;4.00;47.70;;;;;;5012573;28;20207;-71
2023/04/26 03:30:49;;;;;;;161.40;147.83;;;4.00;47.30;;;;;;5010786;28;20773;-71
2023/04/26 03:33:15;;;;;;;141.70;129.17;;;3.90;47.30;;;;;;4996698;28;20200;-71
2023/04/26 03:35:42;;;;;;;205.90;191.43;;;3.80;47.10;;;;;;5012498;28;20337;-72
2023/04/26 03:38:07;;;;;;;153.80;140.80;;;3.80;47.10;;;;;;5012441;28;20619;-71
2023/04/26 03:40:33;;;;;;;108.33;96.73;;;3.70;47.10;;;;;;5012206;28;20279;-72
2023/04/26 03:42:58;;;;;;;177.87;163.70;;;3.70;47.60;;;;;;5010365;28;20207;-70
2023/04/26 03:45:25;;;;;;;133.67;121.60;;;3.70;47.10;;;;;;4991785;28;20191;-70
2023/04/26 03:47:51;;;;;;;129.80;117.85;;;3.60;47.50;;;;;;4992681;28;20271;-70
2023/04/26 03:50:17;;;;;;;129.53;118.07;;;3.60;47.60;;;;;;4992356;28;20247;-71
2023/04/26 03:52:43;;;;;;;152.60;139.30;;;3.60;47.80;;;;;;4992168;28;20595;-70
2023/04/26 03:55:10;;;;;;;125.40;113.90;;;3.50;48.10;;;;;;4992415;28;20187;-70
2023/04/26 03:57:36;;;;;;;151.30;139.02;;;3.50;47.50;;;;;;5012308;28;20180;-71
2023/04/26 04:00:07;;;;;;;160.53;147.50;;;3.50;47.90;;;;;;5011975;28;20707;-71
2023/04/26 04:02:32;;;;;;;132.32;120.38;;;3.40;48.00;;;;;;5011533;28;20427;-70
2023/04/26 04:04:58;;;;;;;116.70;105.60;;;3.40;49.10;;;;;;5011950;28;20591;-71
2023/04/26 04:07:23;;;;;;;129.13;117.17;;;3.40;48.60;;;;;;5010228;28;20205;-71
2023/04/26 04:09:49;;;;;;;186.83;172.50;;;3.40;48.70;;;;;;4992162;28;20271;-71
2023/04/26 04:12:15;;;;;;;120.00;106.03;;;3.40;47.90;;;;;;4992156;28;20232;-70
2023/04/26 04:14:40;;;;;;;104.87;90.67;;;3.40;49.50;;;;;;4992399;28;20182;-70
2023/04/26 04:17:07;;;;;;;142.07;129.83;;;3.40;48.70;;;;;;4991735;28;20484;-70
2023/04/26 04:19:32;;;;;;;147.23;135.15;;;3.50;49.70;;;;;;4994062;28;20174;-71
2023/04/26 04:21:58;;;;;;;144.30;131.70;;;3.40;49.20;;;;;;5011330;28;20254;-71
2023/04/26 04:24:24;;;;;;;137.50;125.37;;;3.40;48.90;;;;;;5011729;28;20207;-71
2023/04/26 04:26:50;;;;;;;169.00;155.45;;;3.40;49.30;;;;;;5011809;28;20594;-71
2023/04/26 04:29:15;;;;;;;177.03;161.93;;;3.40;49.10;;;;;;5011801;28;20180;-72
2023/04/26 04:31:41;;;;;;;139.73;127.07;;;3.40;49.70;;;;;;5006482;28;20243;-71
2023/04/26 04:34:07;;;;;;;157.83;144.43;;;3.40;50.20;;;;;;4991856;28;20642;-71
2023/04/26 04:36:33;;;;;;;159.82;145.02;;;3.50;50.40;;;;;;4992169;28;20175;-72
2023/04/26 04:38:58;;;;;;;113.60;102.10;;;3.50;50.70;;;;;;4992022;28;20173;-72
2023/04/26 04:41:24;;;;;;;143.77;131.13;;;3.60;51.60;;;;;;5042753;23;20226;-69
2023/04/26 04:43:50;;;;;;;196.40;181.97;;;3.70;52.00;;;;;;5051050;28;20230;-69
2023/04/26 04:46:19;;;;;;;123.13;111.33;;;3.70;50.90;;;;;;5051312;28;20235;-69
2023/04/26 04:48:44;;;;;;;116.63;105.57;;;3.80;50.40;;;;;;5033402;28;20436;-68
2023/04/26 04:51:10;;;;;;;114.67;103.30;;;3.90;50.70;;;;;;5051190;28;20196;-69
2023/04/26 04:53:36;;;;;;;150.48;137.77;;;4.00;48.60;;;;;;5051064;28;20173;-69
2023/04/26 04:56:02;;;;;;;123.75;111.53;;;4.10;47.40;;;;;;5051561;28;20188;-68
2023/04/26 04:58:28;;;;;;;168.33;154.93;;;4.20;47.20;;;;;;5054900;28;20257;-69
2023/04/26 05:00:54;;;;;;;151.00;138.33;;;4.40;46.40;;;;;;5054255;28;20729;-68
2023/04/26 05:03:20;;;;;;;130.52;118.80;;;4.40;45.40;;;;;;5054372;28;20642;-68
2023/04/26 05:05:46;;;;;;;131.90;119.87;;;4.40;44.80;;;;;;5054641;28;20190;-68
2023/04/26 05:08:11;;;;;;;163.07;149.33;;;4.50;44.10;;;;;;5054701;28;20712;-68
2023/04/26 05:10:37;;;;;;;216.30;201.00;;;4.60;42.30;;;;;;5054247;28;20464;-68
2023/04/26 05:13:03;;;;;;;209.43;192.37;;;4.80;41.60;;;;;;5036254;28;20204;-68
2023/04/26 05:15:28;;;;;;;236.23;219.43;;;4.90;40.50;;;;;;5054438;28;20270;-69
2023/04/26 05:17:54;;;;;;;179.60;166.10;;;5.10;39.90;;;;;;5036829;28;20179;-69
2023/04/26 05:20:20;;;;;;;155.53;142.73;;;5.20;37.40;;;;;;5036327;28;20172;-69
2023/04/26 05:22:46;;;;;;;161.60;147.80;;;5.30;37.80;;;;;;5053790;28;20441;-69
2023/04/26 05:25:12;;;;;;;158.30;143.27;;;5.30;34.50;;;;;;5054321;28;20263;-69
2023/04/26 05:27:38;;;;;;;183.15;169.25;;;5.40;36.00;;;;;;5069610;28;20280;-69
2023/04/26 05:30:05;;;;;;;129.53;117.53;;;5.40;34.70;;;;;;5036403;28;20268;-68
2023/04/26 05:32:31;;;;;;;155.65;142.05;;;5.40;34.90;;;;;;5053495;28;20464;-69
2023/04/26 05:34:57;;;;;;;112.90;101.43;;;5.50;34.80;;;;;;5054312;28;20597;-68
2023/04/26 05:37:22;;;;;;;120.72;109.22;;;5.40;33.80;;;;;;5036271;28;20176;-69
2023/04/26 05:39:48;;;;;;;113.93;102.67;;;5.60;34.50;;;;;;5054269;28;20170;-70
2023/04/26 05:42:15;;;;;;;101.10;81.93;;;5.70;33.00;;;;;;5053608;28;20223;-69
2023/04/26 05:44:40;;;;;;;151.02;138.43;;;5.90;34.60;;;;;;5069113;28;20443;-70
2023/04/26 05:47:07;;;;;;;153.03;140.47;;;6.10;33.20;;;;;;5036063;28;20223;-69
2023/04/26 05:49:32;;;;;;;114.37;102.83;;;6.40;31.10;;;;;;5054199;28;20256;-70
2023/04/26 05:51:59;;;;;;;159.70;146.63;;;6.70;29.30;;;;;;5053138;28;20562;-70
2023/04/26 05:54:25;;;;;;;122.83;111.43;;;6.90;28.30;;;;;;5054049;28;20167;-69
2023/04/26 05:56:51;;;;;;;151.80;139.20;;;7.10;27.50;;;;;;5053630;28;20461;-70
2023/04/26 05:59:16;;;;;;;111.80;101.07;;;7.50;25.10;;;;;;5053490;28;20182;-70
2023/04/26 06:01:42;;;;;;;166.17;153.13;;;7.70;24.10;;;;;;5053435;28;20805;-69
2023/04/26 06:04:08;;;;;;;179.03;165.83;;;7.70;23.10;;;;;;5053816;28;20182;-69
2023/04/26 06:06:33;;;;;;;183.70;169.63;;;7.80;23.20;;;;;;5053869;28;20285;-69
2023/04/26 06:08:59;;;;;;;105.27;92.53;;;8.00;22.00;;;;;;5052495;28;20624;-69
2023/04/26 06:11:25;;;;;;;115.07;103.63;;;7.90;22.00;;;;;;5052707;28;20213;-68
2023/04/26 06:13:51;;;;;;;132.60;120.60;;;8.00;22.40;;;;;;5038102;28;20198;-70
2023/04/26 06:16:16;;;;;;;122.83;111.13;;;8.50;21.10;;;;;;5034982;28;20410;-69
2023/04/26 06:18:42;;;;;;;201.53;185.43;;;9.40;18.20;;;;;;5053589;28;20676;-68
2023/04/26 06:21:08;;;;;;;153.80;140.43;;;9.70;16.80;;;;;;5053338;28;20193;-69
2023/04/26 06:23:33;;;;;;;196.30;181.57;;;9.80;15.60;;;;;;5052867;28;20189;-69
2023/04/26 06:25:59;;;;;;;124.30;112.27;;;9.90;14.40;;;;;;5035516;28;20187;-68
2023/04/26 06:28:25;;;;;;;170.27;156.43;;;10.00;14.50;;;;;;5053464;28;20182;-68
2023/04/26 06:30:50;;;;;;;106.87;95.57;;;10.30;12.40;;;;;;5053082;28;20497;-68
2023/04/26 06:33:16;;;;;;;185.77;171.43;;;10.70;11.70;;;;;;5052638;28;20260;-68
2023/04/26 06:35:42;;;;;;;213.87;198.60;;;10.90;11.10;;;;;;5053019;28;20525;-68
2023/04/26 06:38:08;;;;;;;184.10;169.27;;;11.20;9.50;;;;;;5052535;28;20179;-68
2023/04/26 06:40:36;;;;;;;154.97;141.63;;;11.60;8.40;;;;;;5028797;28;20171;-68
2023/04/26 06:43:02;;;;;;;297.03;277.87;;;12.10;7.90;;;;;;5047381;28;20497;-67
2023/04/26 06:45:27;;;;;;;248.43;231.00;;;13.50;5.80;;;;;;5041462;28;20425;-67
2023/04/26 06:47:53;;;;;;;310.27;290.20;;;16.60;2.30;;;;;;5034885;28;20425;-67
2023/04/26 06:50:19;;;;;;;281.97;264.40;;;19.40;1.00;;;;;;5052507;28;20202;-67
2023/04/26 06:52:45;;;;;;;319.47;299.43;;;;;;;;;;5052280;28;20522;-67
2023/04/26 06:55:11;;;;;;;381.40;358.97;;;19.10;1.00;;;;;;5052699;28;20902;-67
2023/04/26 06:57:36;;;;;;;341.17;320.60;;;16.00;1.00;;;;;;5047215;28;20475;-68
2023/04/26 07:00:03;;;;;;;214.20;199.20;;;15.30;1.00;;;;;;5048270;28;20181;-68
2023/04/26 07:02:29;;;;;;;278.07;260.00;;;16.40;1.00;;;;;;5048724;28;20693;-68
2023/04/26 07:04:54;;;;;;;346.77;325.80;;;17.50;1.00;;;;;;5048246;28;20796;-68
2023/04/26 07:07:20;;;;;;;328.57;309.17;;;17.20;1.00;;;;;;5048134;28;20265;-68
2023/04/26 07:09:46;;;;;;;232.20;217.23;;;16.40;1.00;;;;;;5048677;28;20181;-67
2023/04/26 07:12:12;;;;;;;280.70;262.10;;;18.60;1.00;;;;;;5047068;28;20469;-67
2023/04/26 07:14:39;;;;;;;319.53;299.10;;;20.30;1.00;;;;;;5046473;28;20516;-70
2023/04/26 07:17:09;;;;;;;306.23;287.33;;;20.80;1.00;;;;;;5065536;28;20489;-68
2023/04/26 07:19:34;;;;;;;354.37;332.30;;;20.30;1.00;;;;;;5048225;28;20798;-67
2023/04/26 07:22:00;;;;;;;363.00;339.47;;;21.60;1.00;;;;;;5029562;28;20445;-69
2023/04/26 07:24:26;;;;;;;365.00;342.00;;;23.70;1.00;;;;;;5051269;28;20182;-68
2023/04/26 07:26:51;;;;;;;483.00;452.97;;;21.70;1.00;;;;;;5032624;28;20229;-69
2023/04/26 07:29:17;;;;;;;355.07;331.80;;;20.30;1.00;;;;;;5051843;28;20570;-68
2023/04/26 07:31:44;;;;;;;389.53;362.97;;;19.20;1.00;;;;;;5051170;28;20219;-69
2023/04/26 07:34:09;;;;;;;364.20;341.90;;;18.20;1.00;;;;;;5051656;28;20910;-67
2023/04/26 07:36:35;;;;;;;342.13;321.13;;;17.00;1.00;;;;;;5051407;28;20445;-69
2023/04/26 07:39:01;;;;;;;315.73;296.10;;;16.60;1.00;;;;;;5067327;28;20178;-68
2023/04/26 07:41:26;;;;;;;255.07;237.80;;;16.50;1.00;;;;;;5066705;28;20764;-69
2023/04/26 07:43:52;;;;;;;273.60;256.30;;;15.60;1.00;;;;;;5033878;28;20592;-68
2023/04/26 07:46:17;;;;;;;306.67;287.60;;;15.50;1.00;;;;;;5051876;28;20210;-68
2023/04/26 07:48:43;;;;;;;295.90;278.30;;;16.00;1.00;;;;;;5033886;28;20218;-68
2023/04/26 07:51:12;;;;;;;280.53;262.83;;;16.30;1.00;;;;;;5034067;28;20614;-68
2023/04/26 07:53:39;;;;;;;364.67;342.37;;;15.80;1.00;;;;;;5051970;28;20271;-69
2023/04/26 07:56:09;;;;;;;290.57;272.30;;;15.80;1.00;;;;;;5051882;28;20500;-68
2023/04/26 07:58:35;;;;;;;186.57;173.40;;;15.20;1.00;;;;;;5052348;28;20782;-67
2023/04/26 08:01:02;;;;;;;269.90;251.80;;;16.00;1.00;;;;;;5034038;28;20494;-67
2023/04/26 08:03:28;;;;;;;292.90;273.77;;;17.40;1.00;;;;;;5051853;28;21147;-67
2023/04/26 08:05:54;;;;;;;297.33;277.77;;;18.90;1.00;;;;;;5034167;28;20417;-68
2023/04/26 08:08:23;;;;;;;367.53;343.93;;;21.10;1.00;;;;;;5034107;28;20189;-68
2023/04/26 08:10:48;;;;;;;322.10;301.67;;;20.40;1.00;;;;;;5052602;28;20213;-68
2023/04/26 08:13:14;;;;;;;297.10;277.53;;;21.70;1.00;;;;;;5052275;28;20469;-68
2023/04/26 08:15:40;;;;;;;304.40;285.50;;;22.70;1.00;;;;;;5052253;28;20193;-68
2023/04/26 08:18:05;;;;;;;322.03;301.23;;;23.70;1.00;;;;;;5051939;28;20902;-68
2023/04/26 08:20:34;;;;;;;263.73;245.87;;;24.90;1.00;;;;;;5053743;28;20518;-69
2023/04/26 08:22:59;;;;;;;341.87;320.33;;;24.40;1.00;;;;;;5053331;28;20221;-68
2023/04/26 08:25:25;;;;;;;218.27;203.10;;;23.30;1.00;;;;;;5051637;28;20456;-68
2023/04/26 08:27:51;;;;;;;326.03;305.70;;;20.70;1.00;;;;;;5051487;28;20175;-69
2023/04/26 08:30:18;;;;;;;380.87;357.20;;;;;;;;;;5051358;28;20183;-68
2023/04/26 08:32:44;;;;;;;318.13;297.97;;;17.60;1.00;;;;;;5054544;28;20491;-68
2023/04/26 08:35:10;;;;;;;278.60;261.60;;;17.30;1.00;;;;;;5055262;28;20495;-68
2023/04/26 08:37:36;;;;;;;332.40;312.00;;;17.40;1.00;;;;;;5055145;28;20502;-68
2023/04/26 08:40:09;;;;;;;290.23;272.03;;;17.00;1.00;;;;;;5037325;28;20409;-68
2023/04/26 08:42:42;;;;;;;253.43;237.33;;;17.00;1.00;;;;;;5055143;28;20468;-68
2023/04/26 08:45:10;;;;;;;275.20;257.90;;;16.60;1.00;;;;;;5055215;28;20412;-68
2023/04/26 08:47:45;;;;;;;288.93;270.53;;;16.30;1.00;;;;;;5055059;28;20420;-68
2023/04/26 08:50:13;;;;;;;254.17;236.60;;;;;;;;;;5054933;28;20412;-68
2023/04/26 08:52:40;;;;;;;280.47;262.27;;;;;;;;;;5054495;28;20464;-69
2023/04/26 08:55:08;;;;;;;258.23;241.27;;;;;;;;;;5036865;28;20507;-70
2023/04/26 08:57:34;;;;;;;232.93;216.67;;;;;;;;;;5054763;28;20413;-69
2023/04/26 09:00:04;;;;;;;240.07;224.40;;;;;;;;;;5054879;28;20417;-69
2023/04/26 09:02:30;;;;;;;244.77;228.60;;;16.00;1.00;;;;;;5054205;28;20436;-69
2023/04/26 09:04:55;;;;;;;259.40;242.90;;;14.70;1.00;;;;;;5054655;28;20416;-70
2023/04/26 09:07:29;;;;;;;301.53;281.37;;;14.60;1.00;;;;;;5054671;28;20435;-68
2023/04/26 09:09:57;;;;;;;244.80;228.30;;;14.30;1.00;;;;;;5054595;28;20587;-69
2023/04/26 09:12:23;;;;;;;246.03;229.63;;;13.70;1.00;;;;;;5053999;28;20569;-68
2023/04/26 09:14:49;;;;;;;188.97;175.53;;;13.80;1.00;;;;;;5054493;28;20486;-68
2023/04/26 09:17:31;;;;;;;198.17;184.27;;;13.60;1.00;;;;;;5054305;28;20226;-68
2023/04/26 09:19:57;;;;;;;226.97;211.60;;;14.20;1.00;;;;;;5054358;28;20192;-69
2023/04/26 09:22:30;;;;;;;255.80;239.60;;;14.60;1.00;;;;;;5054228;28;20489;-69
2023/04/26 09:24:56;;;;;;;356.07;333.10;;;14.20;1.00;;;;;;5054360;28;20421;-69
2023/04/26 09:27:30;;;;;;;392.07;365.37;;;14.40;1.00;;;;;;5036432;28;20546;-69
2023/04/26 09:30:02;;;;;;;351.20;329.00;;;;;;;;;;5036293;28;20427;-69
2023/04/26 09:32:42;;;;;;;196.40;182.23;;;;;;;;;;5054684;28;20470;-69
2023/04/26 09:35:08;;;;;;;176.90;163.63;;;;;;;;;;5055382;28;20415;-69
2023/04/26 09:37:34;;;;;;;432.87;402.93;;;;;;;;;;5054322;28;20419;-69
2023/04/26 09:40:00;;;;;;;202.00;188.00;;;;;;;;;;5038190;28;20420;-67
2023/04/26 09:42:26;;;;;;;245.73;228.80;;;;;;;;;;5035643;28;20552;-67
2023/04/26 09:44:53;;;;;;;310.03;291.47;;;;;;;;;;5053875;28;20409;-67
2023/04/26 09:47:21;;;;;;;257.60;240.80;;;;;;;;;;5055581;28;20491;-68
2023/04/26 09:49:50;;;;;;;291.13;271.67;;;;;;;;;;5037257;28;20436;-69
2023/04/26 09:52:16;;;;;;;287.23;269.43;;;;;;;;;;5035699;28;20888;-68
2023/04/26 09:54:46;;;;;;;257.33;240.63;;;;;;;;;;5055021;28;20413;-68
2023/04/26 09:57:13;;;;;;;247.60;231.67;;;;;;;;;;5037363;28;20453;-68
2023/04/26 09:59:50;;;;;;;321.57;300.53;;;;;;;;;;5054579;28;20451;-68
2023/04/26 10:02:21;;;;;;;294.50;274.00;;;;;;;;;;5054081;28;20458;-68
2023/04/26 10:04:51;;;;;;;249.87;233.17;;;14.00;1.00;;;;;;5054658;28;20629;-68
2023/04/26 10:07:19;;;;;;;253.47;236.10;;;14.20;1.00;;;;;;5056104;28;20797;-68
2023/04/26 10:09:46;;;;;;;193.43;179.83;;;;;;;;;;5036351;28;20425;-68
2023/04/26 10:12:13;;;;;;;312.03;292.00;;;;;;;;;;5035893;28;20567;-68
2023/04/26 10:14:40;;;;;;;250.97;234.77;;;;;;;;;;5035533;28;20421;-68
2023/04/26 10:17:06;;;;;;;269.70;252.57;;;;;;;;;;5053372;28;20417;-69
2023/04/26 10:19:34;;;;;;;236.30;220.23;;;;;;;;;;5053444;28;20409;-70
2023/04/26 10:22:05;;;;;;;292.47;273.67;;;;;;;;;;5036053;28;20437;-69
2023/04/26 10:24:31;;;;;;;336.17;313.80;;;;;;;;;;5054026;28;20432;-68
2023/04/26 10:26:58;;;;;;;255.60;239.00;;;;;;;;;;5053343;28;20567;-68
2023/04/26 10:29:24;;;;;;;231.63;215.60;;;;;;;;;;5054412;28;20409;-68
2023/04/26 10:32:03;;;;;;;174.20;161.83;;;;;;;;;;5054009;28;21015;-68
2023/04/26 10:34:32;;;;;;;208.43;193.93;;;;;;;;;;5054178;28;20412;-68
2023/04/26 10:37:08;;;;;;;212.20;197.90;;;;;;;;;;5035943;28;20889;-68
2023/04/26 10:39:35;;;;;;;206.27;191.70;;;;;;;;;;5054360;28;20408;-67
2023/04/26 10:42:23;;;;;;;292.53;273.13;;;;;;;;;;5045362;23;20529;-71
2023/04/26 10:44:52;;;;;;;266.57;248.70;;;;;;;;;;5012914;28;20502;-68
2023/04/26 10:47:37;;;;;;;264.57;246.57;;;;;;;;;;5013706;28;20402;-71
2023/04/26 10:50:07;;;;;;;247.17;231.10;;;;;;;;;;5014308;28;20415;-70
2023/04/26 10:52:33;;;;;;;277.33;259.17;;;;;;;;;;5014219;28;20466;-70
2023/04/26 10:54:59;;;;;;;210.87;196.67;;;14.10;1.00;;;;;;5014500;28;20438;-71
2023/04/26 10:57:50;;;;;;;306.27;286.73;;;14.40;1.00;;;;;;5013682;28;20417;-70
2023/04/26 11:00:24;;;;;;;330.53;307.47;;;14.40;1.00;;;;;;5014833;28;20172;-70
2023/04/26 11:02:50;;;;;;;247.57;230.33;;;;;;;;;;5013904;28;20441;-70
2023/04/26 11:05:42;;;;;;;184.73;171.90;;;;;;;;;;5013929;28;20783;-70
2023/04/26 11:08:15;;;;;;;283.43;265.30;;;;;;;;;;4990561;28;20415;-71
2023/04/26 11:10:41;;;;;;;246.13;230.37;;;;;;;;;;5014913;28;20469;-71
2023/04/26 11:13:07;;;;;;;244.43;227.77;;;;;;;;;;5014827;28;20464;-70
2023/04/26 11:15:33;;;;;;;204.77;190.37;;;;;;;;;;5014635;28;20407;-71
2023/04/26 11:18:03;;;;;;;225.30;211.13;;;14.10;1.00;;;;;;5014535;28;20446;-71
2023/04/26 11:20:30;;;;;;;204.93;190.93;;;14.00;1.00;;;;;;5013891;28;20422;-71
2023/04/26 11:22:57;;;;;;;249.20;232.33;;;14.60;1.00;;;;;;5014996;28;20447;-71
2023/04/26 11:25:25;;;;;;;245.50;229.80;;;14.60;1.00;;;;;;5014387;28;20792;-71
2023/04/26 11:27:55;;;;;;;206.67;192.87;;;14.60;1.00;;;;;;5014452;28;20529;-71
2023/04/26 11:30:21;;;;;;;193.63;180.37;;;15.00;1.00;;;;;;5013958;28;20422;-71
2023/04/26 11:32:46;;;;;;;246.27;230.40;;;15.70;1.00;;;;;;5013397;28;20971;-71
2023/04/26 11:35:12;;;;;;;302.83;282.43;;;16.50;1.00;;;;;;5013414;28;20180;-71
2023/04/26 11:37:38;;;;;;;302.57;281.73;;;16.00;1.00;;;;;;5014947;28;20566;-71
2023/04/26 11:40:06;;;;;;;259.50;242.70;;;15.90;1.00;;;;;;5012726;28;20423;-71
2023/04/26 11:42:31;;;;;;;286.07;267.23;;;15.80;1.00;;;;;;5013809;28;20214;-71
2023/04/26 11:44:58;;;;;;;241.07;226.00;;;16.00;1.00;;;;;;5013875;28;20912;-71
2023/04/26 11:47:25;;;;;;;213.33;198.63;;;15.60;1.00;;;;;;5013921;28;20183;-71
2023/04/26 11:49:51;;;;;;;414.30;384.47;;;15.80;1.00;;;;;;5013730;28;20916;-71
2023/04/26 11:52:17;;;;;;;219.90;205.13;;;16.10;1.00;;;;;;5013253;28;20469;-71
2023/04/26 11:54:43;;;;;;;276.13;257.83;;;16.10;1.00;;;;;;5012809;28;20586;-71
2023/04/26 11:57:16;;;;;;;273.57;255.30;;;16.50;1.00;;;;;;5013168;28;20427;-71
2023/04/26 11:59:42;;;;;;;262.67;245.00;;;17.20;1.00;;;;;;5013228;28;20892;-71
2023/04/26 12:02:08;;;;;;;224.53;209.57;;;17.40;1.00;;;;;;5013594;28;20489;-71
2023/04/26 12:04:38;;;;;;;277.50;259.37;;;17.40;1.00;;;;;;5013763;28;20626;-71
2023/04/26 12:07:05;;;;;;;342.80;320.30;;;17.20;1.00;;;;;;5015927;28;20411;-71
2023/04/26 12:09:31;;;;;;;182.73;169.07;;;17.50;1.00;;;;;;5017134;28;20918;-71
2023/04/26 12:11:58;;;;;;;353.70;329.63;;;17.50;1.00;;;;;;5017722;28;20466;-71
2023/04/26 12:14:35;;;;;;;304.93;284.73;;;17.10;1.00;;;;;;5017730;28;20513;-72
2023/04/26 12:17:02;;;;;;;257.30;240.53;;;17.10;1.00;;;;;;5017692;28;20418;-71
2023/04/26 12:19:38;;;;;;;253.50;237.27;;;17.00;1.00;;;;;;5016778;28;20422;-71
2023/04/26 12:22:05;;;;;;;310.37;290.33;;;16.90;1.00;;;;;;5016542;28;20810;-71
2023/04/26 12:24:37;;;;;;;269.53;251.03;;;16.40;1.00;;;;;;5016913;28;20445;-71
2023/04/26 12:27:08;;;;;;;317.23;296.03;;;16.60;1.00;;;;;;5016095;28;20418;-71
2023/04/26 12:29:34;;;;;;;315.30;294.07;;;17.10;1.00;;;;;;5016585;28;20414;-72